Time;durP1;ratioP1;P1;durP2;ratioP2;P2;SDS_P1;SDS_P2;PMS_P1;PMS_P2;Temp;Humidity;BMP_temperature;BMP_pressure;BME280_temperature;BME280_humidity;BME280_pressure;Samples;Min_cycle;Max_cycle;Signal;HPM_P1;HPM_P2
2023/06/22 00:02:17;;;;;;;8.05;4.38;;;;;;;18.75;85.66;101777.88;6180195;23;20355;-81
2023/06/22 00:04:44;;;;;;;6.32;4.43;;;;;;;18.74;85.81;101776.19;6180020;23;20012;-80
2023/06/22 00:07:10;;;;;;;6.78;4.50;;;;;;;18.67;85.67;101765.25;6179100;23;20008;-80
2023/06/22 00:09:36;;;;;;;6.63;4.50;;;;;;;18.67;85.22;101767.09;6179158;23;20005;-81
2023/06/22 00:12:02;;;;;;;7.50;4.28;;;;;;;18.62;85.39;101780.84;6180182;23;20005;-80
2023/06/22 00:14:29;;;;;;;6.57;5.03;;;;;;;18.53;85.23;101784.34;6180985;23;20135;-81
2023/06/22 00:16:55;;;;;;;6.78;5.22;;;;;;;18.48;85.09;101770.63;6179145;23;20001;-81
2023/06/22 00:19:23;;;;;;;8.77;4.97;;;;;;;18.48;85.13;101773.28;6180889;23;20051;-81
2023/06/22 00:21:52;;;;;;;8.15;4.60;;;;;;;18.38;85.31;101775.09;6180433;23;19997;-77
2023/06/22 00:24:20;;;;;;;6.03;4.82;;;;;;;18.37;85.10;101773.41;6153005;23;20088;-80
2023/06/22 00:26:47;;;;;;;7.10;4.90;;;;;;;18.34;85.24;101776.34;6180646;23;20005;-77
2023/06/22 00:29:13;;;;;;;6.93;4.97;;;;;;;18.34;84.81;101777.19;6182678;23;20028;-77
2023/06/22 00:31:38;;;;;;;7.07;5.60;;;;;;;18.30;84.95;101766.97;6183659;23;20423;-77
2023/06/22 00:34:03;;;;;;;5.63;5.13;;;;;;;18.22;85.49;101774.81;6184734;23;20001;-77
2023/06/22 00:36:29;;;;;;;5.88;5.25;;;;;;;18.19;85.45;101775.09;6157209;23;20012;-81
2023/06/22 00:38:54;;;;;;;5.95;5.35;;;;;;;18.08;85.90;101776.94;6183788;23;20011;-80
2023/06/22 00:41:21;;;;;;;5.82;5.10;;;;;;;18.09;86.78;101770.63;6183475;23;20017;-81
2023/06/22 00:43:46;;;;;;;5.30;4.80;;;;;;;18.04;87.12;101767.53;6181592;23;20060;-80
2023/06/22 00:46:13;;;;;;;5.28;4.75;;;;;;;18.00;87.46;101768.78;6156712;23;20008;-80
2023/06/22 00:48:39;;;;;;;13.27;5.28;;;;;;;17.94;87.86;101765.81;6183536;23;20005;-81
2023/06/22 00:51:05;;;;;;;5.15;4.68;;;;;;;17.93;88.44;101764.16;6183311;23;20524;-80
2023/06/22 00:53:34;;;;;;;5.43;4.85;;;;;;;17.91;88.34;101766.09;6183911;23;20004;-81
2023/06/22 00:56:00;;;;;;;7.35;5.30;;;;;;;17.87;88.42;101768.22;6156342;23;20012;-80
2023/06/22 00:58:25;;;;;;;6.30;5.18;;;;;;;17.85;88.11;101767.50;6182375;23;20427;-80
2023/06/22 01:00:52;;;;;;;6.53;5.82;;;;;;;17.82;88.67;101757.13;6182522;23;20332;-81
2023/06/22 01:03:18;;;;;;;6.38;5.50;;;;;;;17.80;88.55;101767.09;6157144;23;20009;-79
2023/06/22 01:05:46;;;;;;;6.85;5.43;;;;;;;17.64;89.43;101759.59;6182491;23;20052;-80
2023/06/22 01:08:31;;;;;;;9.50;5.32;;;;;;;17.72;88.90;101766.94;6183535;23;20005;-79
2023/06/22 01:11:25;;;;;;;8.85;5.38;;;;;;;17.72;88.76;101761.59;6184305;23;20016;-77
2023/06/22 01:13:50;;;;;;;9.60;5.85;;;;;;;17.60;89.74;101757.31;6184229;23;20007;-81
2023/06/22 01:16:34;;;;;;;6.03;5.43;;;;;;;17.68;89.45;101754.88;6157362;23;20021;-79
2023/06/22 01:19:28;;;;;;;6.55;5.55;;;;;;;17.65;89.60;101752.47;6181499;23;20300;-82
2023/06/22 01:21:55;;;;;;;6.60;5.97;;;;;;;17.65;90.01;101755.13;6184777;23;20028;-79
2023/06/22 01:24:32;;;;;;;7.78;5.78;;;;;;;17.61;89.85;101764.34;6182141;23;20005;-77
2023/06/22 01:27:31;;;;;;;7.10;6.10;;;;;;;17.63;89.94;101767.72;6182555;23;20009;-76
2023/06/22 01:30:00;;;;;;;6.30;5.70;;;;;;;17.64;90.25;101766.75;6183333;23;20005;-80
2023/06/22 01:32:32;;;;;;;9.68;6.63;;;;;;;17.62;90.93;101760.72;6182882;23;20380;-80
2023/06/22 01:35:00;;;;;;;7.70;6.90;;;;;;;17.66;90.74;101762.13;6183879;23;20012;-81
2023/06/22 01:37:27;;;;;;;7.57;6.88;;;;;;;17.60;91.32;101752.00;6184257;23;20001;-80
2023/06/22 01:39:55;;;;;;;10.43;7.18;;;;;;;17.63;90.88;101747.28;6182491;23;20072;-80
2023/06/22 01:42:21;;;;;;;8.18;7.10;;;;;;;17.62;91.21;101750.06;6180754;23;20012;-79
2023/06/22 01:44:49;;;;;;;10.52;7.68;;;;;;;17.64;90.90;101748.13;6155341;23;20012;-80
2023/06/22 01:47:14;;;;;;;10.32;7.18;;;;;;;17.62;91.54;101750.06;6154653;23;20009;-80
2023/06/22 01:49:40;;;;;;;9.88;8.43;;;;;;;17.57;91.36;101757.59;6181323;23;20015;-80
2023/06/22 01:52:10;;;;;;;9.23;8.20;;;;;;;17.58;91.64;101753.97;6155713;23;20059;-80
2023/06/22 01:54:40;;;;;;;10.52;8.80;;;;;;;17.53;91.96;101757.88;6181133;23;20005;-80
2023/06/22 01:57:06;;;;;;;8.48;7.60;;;;;;;17.55;91.43;101755.91;6181770;23;20005;-80
2023/06/22 01:59:44;;;;;;;9.27;8.38;;;;;;;17.52;92.34;101756.19;6181056;23;20062;-77
2023/06/22 02:02:12;;;;;;;8.50;7.68;;;;;;;17.53;91.81;101746.38;6181065;23;20055;-80
2023/06/22 02:04:46;;;;;;;12.77;7.53;;;;;;;17.54;91.79;101748.91;6182083;23;20023;-80
2023/06/22 02:07:16;;;;;;;8.10;7.38;;;;;;;17.52;92.25;101745.56;6181545;23;20008;-80
2023/06/22 02:09:45;;;;;;;11.07;7.88;;;;;;;17.50;92.54;101752.00;6180946;23;20004;-80
2023/06/22 02:12:18;;;;;;;9.27;8.20;;;;;;;17.45;92.90;101743.56;6181970;23;20051;-80
2023/06/22 02:14:44;;;;;;;;;;;;;;;17.62;89.66;101750.06;6181898;23;20005;-81
2023/06/22 02:17:10;;;;;;;9.20;8.32;;;;;;;17.47;92.93;101753.09;6155594;23;19935;-80
2023/06/22 02:19:40;;;;;;;11.02;9.10;;;;;;;17.44;93.24;101748.06;6182836;23;20110;-80
2023/06/22 02:22:10;;;;;;;11.60;9.30;;;;;;;17.38;93.42;101745.94;6182040;23;20008;-81
2023/06/22 02:24:36;;;;;;;13.38;9.95;;;;;;;17.40;93.49;101745.81;6182628;23;20478;-80
2023/06/22 02:27:02;;;;;;;11.25;10.02;;;;;;;17.38;93.83;101745.94;6181378;23;20005;-81
2023/06/22 02:29:28;;;;;;;11.15;8.85;;;;;;;17.41;93.82;101732.38;6180954;23;20516;-80
2023/06/22 02:31:54;;;;;;;10.50;9.07;;;;;;;17.40;93.86;101738.66;6154961;23;20005;-80
2023/06/22 02:34:21;;;;;;;11.23;9.48;;;;;;;17.41;93.85;101735.03;6182357;23;20479;-80
2023/06/22 02:36:51;;;;;;;11.05;10.05;;;;;;;17.37;94.54;101725.63;6154874;23;20013;-77
2023/06/22 02:39:22;;;;;;;11.27;10.07;;;;;;;17.38;94.27;101727.31;6181909;23;20004;-81
2023/06/22 02:41:48;;;;;;;11.20;10.10;;;;;;;17.33;94.03;101724.22;6154398;23;20325;-81
2023/06/22 02:44:14;;;;;;;11.18;9.57;;;;;;;17.32;94.43;101735.00;6182221;23;20008;-80
2023/06/22 02:46:39;;;;;;;11.40;9.40;;;;;;;17.29;94.25;101730.81;6182741;23;20013;-80
2023/06/22 02:49:05;;;;;;;11.57;9.98;;;;;;;17.23;94.80;101720.72;6156603;23;20013;-79
2023/06/22 02:51:34;;;;;;;13.23;9.35;;;;;;;17.23;95.38;101724.22;6180835;23;20005;-81
2023/06/22 02:53:59;;;;;;;10.88;9.57;;;;;;;17.20;95.43;101724.44;6181052;23;20001;-81
2023/06/22 02:56:25;;;;;;;11.52;10.30;;;;;;;17.16;95.93;101727.50;6180860;23;19997;-80
2023/06/22 02:58:51;;;;;;;12.55;10.50;;;;;;;17.11;95.89;101719.09;6179841;23;20379;-80
2023/06/22 03:01:16;;;;;;;11.95;10.35;;;;;;;17.10;96.20;101717.41;6181985;23;20011;-81
2023/06/22 03:03:42;;;;;;;18.52;10.50;;;;;;;17.08;96.44;101711.41;6180767;23;20001;-80
2023/06/22 03:06:07;;;;;;;11.80;10.70;;;;;;;17.03;96.65;101705.63;6182471;23;20000;-80
2023/06/22 03:08:34;;;;;;;11.57;10.48;;;;;;;17.00;96.76;101703.25;6155456;23;20009;-81
2023/06/22 03:10:59;;;;;;;14.52;10.90;;;;;;;16.98;97.12;101697.22;6180527;23;20063;-77
2023/06/22 03:13:24;;;;;;;14.73;11.48;;;;;;;16.98;96.91;101698.06;6155123;23;20027;-82
2023/06/22 03:15:50;;;;;;;12.45;11.02;;;;;;;16.94;97.79;101690.50;6179437;23;20059;-79
2023/06/22 03:18:15;;;;;;;12.98;10.77;;;;;;;16.96;97.84;101686.72;6154598;23;20031;-80
2023/06/22 03:20:43;;;;;;;12.85;11.27;;;;;;;16.90;98.07;101696.09;6181080;23;20004;-81
2023/06/22 03:23:08;;;;;;;12.93;11.50;;;;;;;16.87;98.93;101683.06;6181194;23;20340;-81
2023/06/22 03:25:35;;;;;;;15.48;11.93;;;;;;;16.88;98.92;101690.06;6181193;23;20001;-81
2023/06/22 03:28:00;;;;;;;14.30;11.95;;;;;;;16.84;99.17;101686.00;6156307;23;20009;-81
2023/06/22 03:30:26;;;;;;;14.07;11.85;;;;;;;16.84;99.59;101678.00;6155128;23;20012;-80
2023/06/22 03:32:51;;;;;;;14.07;12.68;;;;;;;16.84;99.33;101687.81;6179757;23;20001;-80
2023/06/22 03:35:17;;;;;;;14.65;12.45;;;;;;;16.82;99.19;101687.94;6180785;23;20032;-80
2023/06/22 03:37:42;;;;;;;15.75;12.27;;;;;;;16.85;98.90;101690.34;6179868;23;20001;-78
2023/06/22 03:40:08;;;;;;;16.33;12.85;;;;;;;16.80;99.25;101683.72;6181775;23;20028;-80
2023/06/22 03:42:35;;;;;;;20.35;14.48;;;;;;;16.78;100.00;101683.84;6182984;23;20005;-80
2023/06/22 03:45:03;;;;;;;14.38;13.02;;;;;;;16.78;99.86;101675.88;6155693;23;20434;-81
2023/06/22 03:47:28;;;;;;;19.20;13.65;;;;;;;16.80;100.00;101681.03;6152922;23;20005;-80
2023/06/22 03:49:55;;;;;;;14.70;13.18;;;;;;;16.80;100.00;101678.38;6181702;23;20015;-81
2023/06/22 03:52:22;;;;;;;18.08;13.30;;;;;;;16.74;100.00;101671.78;6181539;23;20017;-77
2023/06/22 03:54:48;;;;;;;17.35;13.65;;;;;;;16.76;100.00;101672.50;6180836;23;20004;-80
2023/06/22 03:57:15;;;;;;;16.33;14.05;;;;;;;16.78;100.00;101673.22;6182183;23;20412;-80
2023/06/22 03:59:40;;;;;;;16.60;14.50;;;;;;;16.83;100.00;101668.38;6155965;23;20015;-81
2023/06/22 04:02:06;;;;;;;14.57;13.07;;;;;;;16.82;100.00;101665.84;6181231;23;20080;-81
2023/06/22 04:04:31;;;;;;;17.65;13.70;;;;;;;16.87;100.00;101672.44;6180084;23;20008;-80
2023/06/22 04:06:57;;;;;;;15.85;14.07;;;;;;;16.85;100.00;101676.19;6155430;23;20076;-80
2023/06/22 04:09:23;;;;;;;15.95;14.10;;;;;;;16.90;100.00;101669.50;6153993;23;20013;-80
2023/06/22 04:11:49;;;;;;;16.70;14.73;;;;;;;16.89;100.00;101667.81;6154424;23;20044;-80
2023/06/22 04:14:14;;;;;;;16.33;14.00;;;;;;;17.12;100.00;101667.59;6180370;23;20027;-76
2023/06/22 04:16:40;;;;;;;17.35;13.80;;;;;;;17.52;98.58;101671.03;6180962;23;20012;-80
2023/06/22 04:19:05;;;;;;;14.27;12.88;;;;;;;18.03;96.11;101664.66;6154482;23;20091;-80
2023/06/22 04:21:32;;;;;;;14.20;12.57;;;;;;;18.12;94.57;101663.78;6179228;23;20028;-77
2023/06/22 04:23:58;;;;;;;14.98;12.75;;;;;;;18.01;94.44;101671.94;6181040;23;20028;-79
2023/06/22 04:26:23;;;;;;;14.18;12.68;;;;;;;17.99;94.66;101678.38;6180927;23;20051;-80
2023/06/22 04:28:51;;;;;;;15.10;13.43;;;;;;;17.94;94.64;101681.47;6180573;23;20032;-80
2023/06/22 04:31:18;;;;;;;14.80;13.30;;;;;;;17.86;95.10;101691.97;6154150;23;20088;-81
2023/06/22 04:33:44;;;;;;;14.52;13.05;;;;;;;17.88;95.14;101676.69;6181064;23;20005;-76
2023/06/22 04:36:13;;;;;;;15.18;13.68;;;;;;;17.83;96.01;101676.28;6152813;23;20005;-76
2023/06/22 04:38:38;;;;;;;14.80;13.38;;;;;;;17.89;95.62;101678.38;6154923;23;20032;-82
2023/06/22 04:41:04;;;;;;;16.05;14.45;;;;;;;17.89;95.08;101686.38;6181001;23;20015;-82
2023/06/22 04:43:30;;;;;;;19.90;15.48;;;;;;;17.85;96.09;101684.97;6179502;23;20435;-81
2023/06/22 04:46:03;;;;;;;29.00;15.23;;;;;;;17.86;96.45;101689.31;6153528;23;20012;-81
2023/06/22 04:48:33;;;;;;;16.95;14.32;;;;;;;17.93;96.10;101690.44;6153323;23;20022;-78
2023/06/22 04:51:03;;;;;;;18.77;14.25;;;;;;;17.97;95.71;101691.81;6153025;23;20343;-82
2023/06/22 04:53:29;;;;;;;19.27;15.45;;;;;;;18.03;95.81;101675.31;6180303;23;20009;-81
2023/06/22 04:55:55;;;;;;;19.88;15.45;;;;;;;18.01;94.92;101666.63;6180988;23;20005;-81
2023/06/22 04:58:21;;;;;;;19.83;15.38;;;;;;;18.02;95.01;101672.78;6154229;23;20005;-81
2023/06/22 05:00:47;;;;;;;19.77;15.13;;;;;;;18.05;94.98;101683.16;6156118;23;20013;-80
2023/06/22 05:03:12;;;;;;;16.92;15.15;;;;;;;18.10;94.73;101680.91;6179315;23;20011;-80
2023/06/22 05:05:38;;;;;;;18.27;14.93;;;;;;;18.16;94.61;101680.34;6179714;23;20091;-81
2023/06/22 05:08:06;;;;;;;16.25;14.57;;;;;;;18.17;94.86;101685.50;6181300;23;20012;-80
2023/06/22 05:10:33;;;;;;;17.27;15.20;;;;;;;18.20;94.00;101675.56;6153235;23;20005;-76
2023/06/22 05:13:00;;;;;;;17.63;15.18;;;;;;;18.30;94.42;101673.72;6180725;23;20071;-80
2023/06/22 05:15:30;;;;;;;17.63;15.60;;;;;;;18.33;94.16;101670.75;6154710;23;20005;-77
2023/06/22 05:17:56;;;;;;;18.95;16.67;;;;;;;18.41;94.61;101673.53;6182045;23;20446;-81
2023/06/22 05:20:21;;;;;;;17.67;15.85;;;;;;;18.52;94.34;101668.06;6183074;23;20000;-77
2023/06/22 05:22:47;;;;;;;17.67;15.80;;;;;;;18.62;93.44;101668.91;6181814;23;20526;-81
2023/06/22 05:25:13;;;;;;;20.20;15.93;;;;;;;18.71;92.30;101670.69;6181570;23;20007;-76
2023/06/22 05:27:39;;;;;;;17.20;15.50;;;;;;;18.81;92.05;101669.78;6181865;23;19997;-80
2023/06/22 05:30:09;;;;;;;17.65;15.90;;;;;;;18.87;92.68;101674.56;6182715;23;20009;-80
2023/06/22 05:32:36;;;;;;;19.17;17.27;;;;;;;18.94;92.04;101670.31;6153801;23;20075;-77
2023/06/22 05:35:02;;;;;;;19.08;17.08;;;;;;;19.02;92.08;101662.41;6180746;23;20004;-77
2023/06/22 05:37:28;;;;;;;19.83;17.65;;;;;;;19.00;91.54;101661.72;6176833;23;20008;-81
2023/06/22 05:39:55;;;;;;;20.45;17.60;;;;;;;19.02;91.72;101665.06;6180678;23;20083;-82
2023/06/22 05:42:21;;;;;;;20.95;18.23;;;;;;;19.02;92.20;101655.25;6155156;23;20013;-79
2023/06/22 05:44:47;;;;;;;23.77;18.30;;;;;;;19.02;92.18;101657.91;6155279;23;20016;-82
2023/06/22 05:47:12;;;;;;;25.60;17.73;;;;;;;19.02;92.22;101665.06;6181094;23;20008;-82
2023/06/22 05:49:38;;;;;;;22.58;18.98;;;;;;;19.02;92.83;101662.41;6181673;23;20088;-81
2023/06/22 05:52:03;;;;;;;21.05;18.13;;;;;;;19.12;92.25;101673.84;6182466;23;20051;-80
2023/06/22 05:54:29;;;;;;;20.98;18.75;;;;;;;19.19;92.04;101671.44;6154673;23;20012;-82
2023/06/22 05:56:55;;;;;;;23.45;19.80;;;;;;;19.21;92.31;101678.31;6179505;23;20001;-81
2023/06/22 05:59:20;;;;;;;20.75;18.60;;;;;;;19.27;92.77;101668.88;6181720;23;20001;-82
2023/06/22 06:01:49;;;;;;;20.63;18.38;;;;;;;19.34;92.02;101673.47;6180995;23;20009;-82
2023/06/22 06:04:16;;;;;;;21.20;18.85;;;;;;;19.44;93.10;101672.56;6183642;23;20005;-81
2023/06/22 06:06:46;;;;;;;29.20;19.30;;;;;;;19.55;92.45;101672.34;6155367;23;20332;-79
2023/06/22 06:09:13;;;;;;;24.88;20.27;;;;;;;19.53;91.41;101666.34;6155387;23;20009;-81
2023/06/22 06:11:39;;;;;;;23.42;20.25;;;;;;;19.60;91.95;101667.41;6181807;23;20032;-80
2023/06/22 06:14:05;;;;;;;22.75;19.70;;;;;;;19.60;91.76;101656.72;6153323;23;20008;-80
2023/06/22 06:16:32;;;;;;;21.52;19.30;;;;;;;19.61;91.86;101661.94;6155844;23;20313;-81
2023/06/22 06:18:58;;;;;;;23.33;19.60;;;;;;;19.68;91.80;101656.81;6154900;23;20013;-80
2023/06/22 06:21:23;;;;;;;26.90;20.50;;;;;;;19.75;91.38;101659.72;6180204;23;20454;-77
2023/06/22 06:23:50;;;;;;;22.42;18.70;;;;;;;19.89;91.26;101660.00;6180000;23;20331;-78
2023/06/22 06:26:17;;;;;;;21.98;19.08;;;;;;;19.89;91.00;101667.16;6180772;23;19993;-78
2023/06/22 06:28:45;;;;;;;21.65;19.23;;;;;;;19.90;90.34;101675.03;6180897;23;20339;-77
2023/06/22 06:31:12;;;;;;;23.02;19.35;;;;;;;19.97;89.88;101668.06;6180848;23;20040;-77
2023/06/22 06:33:44;;;;;;;23.33;18.80;;;;;;;20.01;89.84;101658.78;6182165;23;20068;-77
2023/06/22 06:36:10;;;;;;;;;;;;;;;20.17;89.30;101662.56;6180993;23;19997;-77
2023/06/22 06:38:35;;;;;;;19.93;17.87;;;;;;;20.12;88.72;101660.38;6181188;23;20326;-77
2023/06/22 06:41:02;;;;;;;20.38;18.23;;;;;;;20.20;89.35;101654.22;6180495;23;20769;-77
2023/06/22 06:43:27;;;;;;;20.48;18.33;;;;;;;20.27;88.92;101655.28;6180271;23;20781;-77
2023/06/22 06:45:53;;;;;;;20.75;18.50;;;;;;;20.28;88.09;101651.59;6154948;23;20032;-77
2023/06/22 06:48:19;;;;;;;21.73;19.35;;;;;;;20.26;87.27;101658.94;6180246;23;20347;-76
2023/06/22 06:50:44;;;;;;;19.55;17.52;;;;;;;20.35;88.13;101660.66;6179959;23;20055;-77
2023/06/22 06:53:10;;;;;;;22.98;18.98;;;;;;;20.33;87.04;101665.34;6181296;23;20008;-83
2023/06/22 06:55:35;;;;;;;23.35;19.52;;;;;;;20.44;87.03;101667.81;6156406;23;20005;-81
2023/06/22 06:58:02;;;;;;;23.23;20.88;;;;;;;20.46;86.01;101664.97;6151317;23;20012;-80
2023/06/22 07:00:28;;;;;;;20.52;18.38;;;;;;;20.51;86.50;101663.50;6180766;23;20004;-82
2023/06/22 07:02:53;;;;;;;22.30;18.48;;;;;;;20.51;86.25;101663.50;6180487;23;20054;-75
2023/06/22 07:05:19;;;;;;;23.38;18.80;;;;;;;20.53;85.77;101658.81;6180194;23;20000;-75
2023/06/22 07:07:44;;;;;;;21.38;19.17;;;;;;;20.51;86.35;101657.31;6153989;23;20004;-75
2023/06/22 07:10:11;;;;;;;21.42;18.90;;;;;;;20.55;86.58;101664.84;6179170;23;20036;-82
2023/06/22 07:12:37;;;;;;;22.75;19.13;;;;;;;20.51;86.82;101658.16;6179275;23;20005;-81
2023/06/22 07:15:11;;;;;;;21.52;19.23;;;;;;;20.55;87.38;101659.50;6179576;23;20458;-81
2023/06/22 07:17:36;;;;;;;20.48;18.40;;;;;;;20.61;86.92;101653.53;6179723;23;20070;-80
2023/06/22 07:20:08;;;;;;;20.77;18.67;;;;;;;20.62;86.70;101655.19;6180092;23;20001;-81
2023/06/22 07:22:33;;;;;;;20.52;18.35;;;;;;;20.65;87.31;101652.19;6181225;23;20454;-82
2023/06/22 07:24:59;;;;;;;21.38;18.55;;;;;;;20.59;86.66;101655.53;6153914;23;20001;-82
2023/06/22 07:27:24;;;;;;;20.88;18.77;;;;;;;20.68;85.68;101658.22;6181395;23;19997;-83
2023/06/22 07:29:50;;;;;;;21.02;18.90;;;;;;;20.69;85.76;101644.69;6180861;23;20477;-82
2023/06/22 07:32:17;;;;;;;22.67;19.88;;;;;;;20.64;85.60;101647.84;6179787;23;20016;-82
2023/06/22 07:34:43;;;;;;;22.88;19.38;;;;;;;20.67;86.80;101652.03;6181448;23;20016;-81
2023/06/22 07:37:09;;;;;;;21.75;19.52;;;;;;;20.63;87.67;101643.50;6181535;23;20371;-82
2023/06/22 07:39:37;;;;;;;21.17;19.08;;;;;;;20.69;88.29;101649.19;6181226;23;20001;-82
2023/06/22 07:42:03;;;;;;;25.17;20.90;;;;;;;20.66;88.82;101634.31;6180001;23;20016;-82
2023/06/22 07:44:29;;;;;;;23.52;21.10;;;;;;;20.62;86.82;101628.44;6180876;23;20009;-83
2023/06/22 07:46:55;;;;;;;21.70;19.65;;;;;;;20.68;90.47;101620.78;6152725;23;20107;-83
2023/06/22 07:49:20;;;;;;;23.48;20.58;;;;;;;20.70;92.43;101618.78;6181565;23;20081;-83
2023/06/22 07:51:45;;;;;;;26.38;23.45;;;;;;;20.74;92.69;101607.59;6179554;23;20382;-75
2023/06/22 07:54:11;;;;;;;24.33;21.88;;;;;;;20.78;94.07;101600.94;6153909;23;20487;-83
2023/06/22 07:56:37;;;;;;;26.38;23.20;;;;;;;20.86;94.70;101589.44;6182081;23;20079;-83
2023/06/22 07:59:03;;;;;;;26.33;23.48;;;;;;;20.88;97.16;101582.94;6180173;23;20005;-84
2023/06/22 08:01:29;;;;;;;25.65;22.83;;;;;;;20.90;96.25;101588.13;6178574;23;20008;-82
2023/06/22 08:03:54;;;;;;;25.60;22.98;;;;;;;20.98;95.09;101577.44;6154439;23;20009;-74
2023/06/22 08:06:20;;;;;;;24.98;22.08;;;;;;;21.06;95.41;101574.78;6180090;23;20029;-82
2023/06/22 08:08:52;;;;;;;33.95;23.60;;;;;;;21.03;95.07;101563.56;6180717;23;20191;-82
2023/06/22 08:11:17;;;;;;;;;;;;;;;21.24;92.80;101559.47;6180399;23;20005;-82
2023/06/22 08:13:43;;;;;;;27.63;23.17;;;;;;;21.10;94.90;101557.38;6180045;23;19904;-82
2023/06/22 08:16:10;;;;;;;26.00;23.27;;;;;;;21.13;96.66;101556.22;6180732;23;20008;-83
2023/06/22 08:18:35;;;;;;;25.98;23.05;;;;;;;21.10;97.11;101554.69;6179789;23;20007;-83
2023/06/22 08:21:02;;;;;;;24.02;21.42;;;;;;;21.16;96.97;101554.03;6179349;23;20009;-83
2023/06/22 08:23:28;;;;;;;29.35;22.42;;;;;;;21.14;97.37;101553.38;6154560;23;20028;-83
2023/06/22 08:25:53;;;;;;;34.05;24.13;;;;;;;21.14;96.88;101553.38;6181934;23;20024;-82
2023/06/22 08:28:18;;;;;;;26.90;24.05;;;;;;;21.14;96.04;101552.53;6180671;23;20009;-82
2023/06/22 08:30:44;;;;;;;43.45;25.20;;;;;;;21.08;96.67;101548.69;6179903;23;20131;-82
2023/06/22 08:33:09;;;;;;;39.08;24.70;;;;;;;21.08;97.61;101554.03;6181093;23;20001;-82
2023/06/22 08:35:34;;;;;;;26.67;23.73;;;;;;;21.17;97.27;101558.38;6180313;23;20424;-82
2023/06/22 08:38:01;;;;;;;26.70;23.90;;;;;;;21.23;96.69;101555.09;6154619;23;20067;-82
2023/06/22 08:40:27;;;;;;;26.48;23.70;;;;;;;21.17;97.21;101553.03;6178751;23;20111;-81
2023/06/22 08:42:52;;;;;;;24.83;22.42;;;;;;;21.17;96.63;101550.34;6178489;23;20189;-84
2023/06/22 08:45:18;;;;;;;23.08;20.88;;;;;;;21.20;95.36;101552.69;6154416;23;20427;-83
2023/06/22 08:47:48;;;;;;;24.23;21.67;;;;;;;21.18;93.94;101544.00;6153690;23;20431;-81
2023/06/22 08:50:13;;;;;;;22.10;19.98;;;;;;;21.18;93.40;101548.53;6181280;23;20013;-83
2023/06/22 08:52:43;;;;;;;23.45;21.02;;;;;;;21.23;95.17;101551.59;6183037;23;20537;-82
2023/06/22 08:55:09;;;;;;;23.33;20.67;;;;;;;21.26;95.09;101545.91;6182331;23;20337;-82
2023/06/22 08:57:40;;;;;;;21.88;19.92;;;;;;;21.26;93.68;101538.72;6156338;23;20060;-82
2023/06/22 09:00:16;;;;;;;23.08;20.67;;;;;;;21.24;93.71;101538.03;6182789;23;20442;-82
2023/06/22 09:02:45;;;;;;;24.20;20.08;;;;;;;21.22;94.27;101525.81;6155932;23;20370;-82
2023/06/22 09:05:12;;;;;;;22.52;20.20;;;;;;;21.18;94.29;101525.28;6181950;23;20013;-82
2023/06/22 09:07:38;;;;;;;21.90;19.77;;;;;;;21.15;92.90;101527.44;6183508;23;20422;-82
2023/06/22 09:10:04;;;;;;;21.88;19.35;;;;;;;21.16;92.48;101524.59;6181694;23;20028;-76
2023/06/22 09:12:30;;;;;;;21.90;19.80;;;;;;;21.15;91.90;101522.94;6180724;23;20008;-79
2023/06/22 09:14:56;;;;;;;22.55;20.25;;;;;;;21.18;93.65;101527.94;6182871;23;20012;-80
2023/06/22 09:17:23;;;;;;;24.48;19.38;;;;;;;21.27;94.60;101527.00;6181913;23;20071;-79
2023/06/22 09:19:48;;;;;;;20.05;18.05;;;;;;;21.32;95.23;101517.63;6182593;23;20001;-79
2023/06/22 09:22:14;;;;;;;20.17;18.35;;;;;;;21.34;94.50;101511.09;6181423;23;20055;-79
2023/06/22 09:24:40;;;;;;;26.15;19.67;;;;;;;21.42;93.94;101518.28;6178116;23;20451;-76
2023/06/22 09:27:06;;;;;;;27.10;19.67;;;;;;;21.45;91.24;101518.78;6182102;23;20071;-79
2023/06/22 09:29:34;;;;;;;21.27;18.80;;;;;;;21.51;90.77;101514.59;6181819;23;20428;-79
2023/06/22 09:32:01;;;;;;;26.17;19.73;;;;;;;21.53;92.83;101523.31;6181211;23;20005;-79
2023/06/22 09:34:27;;;;;;;20.85;18.13;;;;;;;21.69;91.11;101515.28;6156197;23;20466;-79
2023/06/22 09:36:52;;;;;;;22.33;18.52;;;;;;;21.75;90.95;101519.09;6182244;23;19997;-84
2023/06/22 09:39:18;;;;;;;24.52;18.10;;;;;;;21.81;89.37;101513.91;6181926;23;20005;-84
2023/06/22 09:41:44;;;;;;;21.95;16.85;;;;;;;21.88;88.62;101517.56;6182109;23;20084;-82
2023/06/22 09:44:09;;;;;;;22.83;18.17;;;;;;;21.86;88.07;101516.06;6182092;23;20015;-82
2023/06/22 09:46:34;;;;;;;17.65;15.73;;;;;;;21.92;88.23;101512.69;6180549;23;20005;-83
2023/06/22 09:49:02;;;;;;;16.15;14.55;;;;;;;21.99;86.47;101511.00;6181843;23;20383;-83
2023/06/22 09:51:27;;;;;;;17.52;14.15;;;;;;;21.97;84.59;101504.97;6183100;23;20005;-78
2023/06/22 09:53:54;;;;;;;15.45;13.82;;;;;;;22.04;86.86;101502.50;6181106;23;20005;-82
2023/06/22 09:56:20;;;;;;;17.50;15.00;;;;;;;22.10;85.79;101502.66;6154817;23;20016;-82
2023/06/22 09:58:46;;;;;;;15.40;13.90;;;;;;;22.11;81.36;101500.81;6180247;23;20009;-79
2023/06/22 10:01:14;;;;;;;14.60;13.10;;;;;;;22.12;79.91;101507.84;6181504;23;20317;-78
2023/06/22 10:03:41;;;;;;;15.07;13.52;;;;;;;22.09;80.43;101505.50;6182072;23;20313;-78
2023/06/22 10:06:09;;;;;;;14.60;13.10;;;;;;;22.11;77.93;101503.47;6154029;23;20063;-79
2023/06/22 10:08:36;;;;;;;15.77;13.95;;;;;;;22.06;79.22;101508.53;6181314;23;20012;-79
2023/06/22 10:11:01;;;;;;;16.40;14.23;;;;;;;22.15;80.28;101505.63;6179656;23;20229;-80
2023/06/22 10:13:27;;;;;;;15.13;13.63;;;;;;;22.11;77.26;101511.53;6179995;23;20623;-79
2023/06/22 10:15:53;;;;;;;15.00;12.98;;;;;;;22.10;77.17;101502.66;6153791;23;20001;-78
2023/06/22 10:18:18;;;;;;;15.18;12.30;;;;;;;22.14;80.54;101508.50;6179932;23;20012;-78
2023/06/22 10:20:47;;;;;;;14.13;12.73;;;;;;;22.12;80.83;101510.50;6181265;23;20005;-79
2023/06/22 10:23:12;;;;;;;13.93;12.25;;;;;;;22.11;81.54;101504.31;6181685;23;20465;-80
2023/06/22 10:25:38;;;;;;;14.90;11.82;;;;;;;22.11;84.30;101509.69;6182121;23;20008;-75
2023/06/22 10:28:03;;;;;;;16.00;13.63;;;;;;;22.04;83.97;101514.06;6181069;23;20005;-80
2023/06/22 10:30:29;;;;;;;17.50;13.93;;;;;;;22.04;86.30;101515.91;6155283;23;20059;-82
2023/06/22 10:32:54;;;;;;;16.48;14.27;;;;;;;22.04;85.99;101515.91;6181764;23;20012;-82
2023/06/22 10:35:21;;;;;;;15.85;14.35;;;;;;;21.97;88.70;101520.22;6180945;23;20412;-81
2023/06/22 10:37:47;;;;;;;18.02;15.75;;;;;;;21.94;89.87;101521.41;6182064;23;20475;-75
2023/06/22 10:40:14;;;;;;;16.48;14.48;;;;;;;21.96;90.02;101531.94;6181830;23;20000;-81
2023/06/22 10:42:43;;;;;;;16.35;14.65;;;;;;;21.89;90.92;101524.59;6181748;23;20009;-82
2023/06/22 10:45:09;;;;;;;18.35;14.82;;;;;;;21.84;93.61;101535.00;6182330;23;20005;-81
2023/06/22 10:47:36;;;;;;;16.88;15.25;;;;;;;21.88;93.75;101541.69;6182799;23;20423;-82
2023/06/22 10:50:02;;;;;;;16.23;14.65;;;;;;;21.85;93.51;101552.75;6181371;23;20013;-82
2023/06/22 10:52:27;;;;;;;16.45;14.75;;;;;;;21.85;94.62;101558.09;6182123;23;20040;-82
2023/06/22 10:54:53;;;;;;;17.88;15.95;;;;;;;21.76;93.89;101556.44;6182189;23;20423;-81
2023/06/22 10:57:20;;;;;;;18.13;16.20;;;;;;;21.69;96.60;101546.56;6181452;23;20051;-81
2023/06/22 10:59:45;;;;;;;18.42;16.63;;;;;;;21.64;94.99;101544.41;6155792;23;20005;-81
2023/06/22 11:02:10;;;;;;;18.30;16.50;;;;;;;21.61;97.75;101542.03;6181325;23;20368;-75
2023/06/22 11:04:36;;;;;;;22.05;18.52;;;;;;;21.49;98.21;101538.88;6156303;23;20019;-75
2023/06/22 11:07:03;;;;;;;20.08;18.00;;;;;;;21.43;98.45;101552.09;6181531;23;20359;-75
2023/06/22 11:09:28;;;;;;;22.77;18.85;;;;;;;21.38;98.74;101544.56;6180152;23;20447;-83
2023/06/22 11:11:56;;;;;;;23.15;19.00;;;;;;;21.32;100.00;101560.47;6181203;23;20009;-82